METAR & TAF

RJTY 210956Z 08003KT 10SM OVC016 22/20 A2967 RMK AO2A CIG 015 RWY18 SLP046 T02240197 FZRANO $
RJTY 210926Z 07004KT 10SM BKN018 22/20 A2966 RMK AO2A SLP043 FZRANO $
RJTY 210856Z COR AUTO 08004KT 10SM SCT014 23/20 A2964 RMK AO2 SLP036 T02270198 50005 FZRANO $ COR 0908
RJTY 210841Z AUTO 00000KT 10SM SCT014 23/20 A2964 RMK AO2 SLP036 FZRANO $
RJTY 210756Z AUTO 00000KT 10SM OVC014 23/20 A2962 RMK AO2 SLP029 T02280195 FZRANO $
RJTY 210656Z AUTO 14006KT 10SM BKN014 23/20 A2963 RMK AO2 SLP032 T02270198 FZRANO $
RJTY 210556Z AUTO 17007KT 10SM OVC014 22/20 A2963 RMK AO2 SLP033 T02240195 10237 20210 55007 FZRANO $

TAF RJTY 210500Z 2105/2211 16009KT 9999 SCT009 BKN015 QNH2962INS
  TEMPO 2106/2109 8000 -SHRA BKN009
  BECMG 2111/2112 34006KT 9999 SCT015 QNH2970INS
  BECMG 2123/2124 10010G15KT 8000 -SHRA BKN015 QNH2978INS
  BECMG 2206/2207 14009KT 9999 NSW SCT030 QNH2974INS TX25/2203Z TN18/2118Z